Time;durP1;ratioP1;P1;durP2;ratioP2;P2;SDS_P1;SDS_P2;PMS_P1;PMS_P2;Temp;Humidity;BMP_temperature;BMP_pressure;BME280_temperature;BME280_humidity;BME280_pressure;Samples;Min_cycle;Max_cycle;Signal;HPM_P1;HPM_P2
2021/04/18 00:04:57;;;;;;;58.78;34.45;;;;;;;7.09;71.39;99285.34;263455;1100;114686;-71
2021/04/18 00:10:00;;;;;;;51.35;32.60;;;;;;;7.11;70.61;99278.22;263075;1104;114840;-70
2021/04/18 00:15:07;;;;;;;53.13;33.40;;;;;;;7.12;70.61;99285.22;263425;1099;114724;-70
2021/04/18 00:20:11;;;;;;;53.45;32.90;;;;;;;7.15;71.17;99293.02;263493;1104;114955;-70
2021/04/18 00:25:17;;;;;;;52.95;33.93;;;;;;;7.18;71.43;99284.95;263462;1099;115320;-70
2021/04/18 00:30:26;;;;;;;56.40;34.15;;;;;;;7.20;71.52;99280.47;263516;1104;115375;-67
2021/04/18 00:35:34;;;;;;;54.13;33.07;;;;;;;7.20;71.67;99279.58;261481;1099;114921;-69
2021/04/18 00:40:38;;;;;;;56.63;32.33;;;;;;;7.18;70.61;99279.66;261912;1104;114898;-66
2021/04/18 00:45:41;;;;;;;56.45;31.40;;;;;;;7.21;71.25;99278.67;263510;1099;115381;-66
2021/04/18 00:50:44;;;;;;;52.00;31.78;;;;;;;7.25;71.32;99277.60;263502;1104;114807;-70
2021/04/18 00:55:47;;;;;;;51.68;31.75;;;;;;;7.30;71.20;99278.23;263023;1099;115097;-70
2021/04/18 01:00:50;;;;;;;49.13;29.78;;;;;;;7.28;71.06;99278.32;263524;1104;114856;-70
2021/04/18 01:05:53;;;;;;;48.08;28.95;;;;;;;7.25;70.88;99274.95;263446;1099;114796;-70
2021/04/18 01:10:56;;;;;;;47.45;28.68;;;;;;;7.21;70.87;99274.23;263464;1104;114926;-70
2021/04/18 01:15:58;;;;;;;47.27;28.73;;;;;;;7.17;71.34;99267.36;263121;1099;114938;-70
2021/04/18 01:21:02;;;;;;;51.00;30.55;;;;;;;7.17;70.56;99282.36;263084;1104;114826;-66
2021/04/18 01:26:23;;;;;;;48.25;29.80;;;;;;;7.20;71.15;99279.58;263469;1100;115346;-66
2021/04/18 01:31:30;;;;;;;48.95;29.68;;;;;;;7.24;70.91;99278.54;263320;1100;115459;-67
2021/04/18 01:36:33;;;;;;;50.10;31.20;;;;;;;7.30;71.04;99286.18;263508;1099;115784;-70
2021/04/18 01:41:35;;;;;;;51.35;30.05;;;;;;;7.31;71.23;99274.69;263517;1104;114463;-70
2021/04/18 01:46:44;;;;;;;53.68;30.98;;;;;;;7.27;71.14;99273.97;263047;1099;115166;-66
2021/04/18 01:51:47;;;;;;;52.20;32.65;;;;;;;7.26;71.40;99280.16;263205;1104;115770;-66
2021/04/18 01:56:50;;;;;;;54.95;32.30;;;;;;;7.23;71.02;99263.56;262799;1100;114893;-70
2021/04/18 02:02:07;;;;;;;53.53;32.20;;;;;;;7.21;70.74;99262.80;262978;1104;114497;-69
2021/04/18 02:07:10;;;;;;;54.70;31.70;;;;;;;7.23;71.53;99267.06;263510;1099;114817;-70
2021/04/18 02:12:14;;;;;;;55.03;34.35;;;;;;;7.26;70.96;99253.70;263470;1100;114954;-69
2021/04/18 02:17:18;;;;;;;54.38;33.28;;;;;;;7.28;71.49;99261.59;263452;1099;114736;-70
2021/04/18 02:22:22;;;;;;;56.73;33.45;;;;;;;7.25;71.26;99253.78;263496;1104;114988;-70
2021/04/18 02:27:27;;;;;;;;;;;;;;;7.21;70.67;99252.20;263548;1099;115027;-69
2021/04/18 02:32:36;;;;;;;59.90;35.30;;;;;;;7.17;71.20;99253.25;262561;1104;103022;-68
2021/04/18 02:37:40;;;;;;;58.93;34.43;;;;;;;7.16;71.25;99251.53;263387;1099;114833;-71
2021/04/18 02:42:43;;;;;;;60.85;35.70;;;;;;;7.15;71.19;99250.68;263167;1104;114883;-70
2021/04/18 02:47:47;;;;;;;56.20;32.53;;;;;;;7.19;71.57;99246.96;263464;1099;114989;-71
2021/04/18 02:52:51;;;;;;;60.85;34.80;;;;;;;7.26;71.52;99240.46;263111;1104;115168;-66
2021/04/18 02:57:54;;;;;;;56.40;34.78;;;;;;;7.31;71.23;99237.63;263415;1098;114908;-71
2021/04/18 03:02:58;;;;;;;56.43;32.68;;;;;;;7.31;70.88;99238.48;263493;1104;115197;-67
2021/04/18 03:08:02;;;;;;;54.15;33.05;;;;;;;7.26;71.42;99221.93;263377;1099;115027;-71
2021/04/18 03:13:05;;;;;;;53.85;31.78;;;;;;;7.23;70.94;99224.72;263494;1104;114881;-68
2021/04/18 03:18:09;;;;;;;58.33;32.88;;;;;;;7.22;71.30;99212.42;263487;1099;114774;-71
2021/04/18 03:23:12;;;;;;;55.48;32.10;;;;;;;7.25;71.32;99217.58;263476;1104;114977;-67
2021/04/18 03:28:18;;;;;;;58.43;32.88;;;;;;;7.27;70.89;99214.88;263289;1099;114850;-67
2021/04/18 03:33:24;;;;;;;56.75;32.18;;;;;;;7.27;71.38;99220.17;263493;1104;114914;-70
2021/04/18 03:38:37;;;;;;;58.15;32.38;;;;;;;7.24;71.02;99223.80;263421;1098;115233;-67
2021/04/18 03:43:41;;;;;;;57.48;31.65;;;;;;;7.23;70.93;99216.77;263075;1104;114895;-66
2021/04/18 03:48:48;;;;;;;55.13;30.53;;;;;;;7.21;71.63;99217.80;263465;1098;114756;-71
2021/04/18 03:53:52;;;;;;;59.00;31.63;;;;;;;7.19;70.81;99217.84;263528;1104;115298;-72
2021/04/18 03:58:58;;;;;;;56.23;29.75;;;;;;;7.22;71.67;99230.95;263485;1099;114727;-70
2021/04/18 04:04:01;;;;;;;63.33;32.47;;;;;;;7.27;71.62;99225.46;263222;1104;114948;-68
2021/04/18 04:09:09;;;;;;;66.55;33.45;;;;;;;7.32;71.36;99229.59;263151;1099;115330;-68
2021/04/18 04:14:16;;;;;;;69.60;33.80;;;;;;;7.34;71.80;99233.05;263501;1104;114909;-72
2021/04/18 04:19:24;;;;;;;73.15;34.53;;;;;;;7.33;71.76;99226.02;263322;1099;114785;-69
2021/04/18 04:24:46;;;;;;;70.40;32.65;;;;;;;7.32;70.91;99236.69;263512;1104;114863;-67
2021/04/18 04:29:49;;;;;;;71.15;32.40;;;;;;;7.31;71.63;99232.33;262766;1099;114695;-67
2021/04/18 04:34:52;;;;;;;64.13;31.73;;;;;;;7.37;71.77;99228.52;263365;1102;115153;-71
2021/04/18 04:39:55;;;;;;;66.37;32.30;;;;;;;7.42;71.93;99234.48;263471;1099;114898;-70
2021/04/18 04:44:58;;;;;;;70.90;32.85;;;;;;;7.44;71.52;99237.89;263166;1102;114710;-71
2021/04/18 04:50:00;;;;;;;72.13;33.33;;;;;;;7.46;71.19;99238.70;263460;1099;114722;-70
2021/04/18 04:55:04;;;;;;;71.40;33.30;;;;;;;7.46;71.52;99234.26;263483;1103;114894;-72
2021/04/18 05:00:08;;;;;;;67.23;32.17;;;;;;;7.45;71.09;99229.91;263497;1101;114949;-70
2021/04/18 05:05:12;;;;;;;67.18;31.65;;;;;;;7.48;71.52;99229.77;263512;1103;114509;-70
2021/04/18 05:10:14;;;;;;;70.33;32.48;;;;;;;7.52;71.47;99241.92;263480;1099;114589;-70
2021/04/18 05:15:22;;;;;;;68.08;33.58;;;;;;;7.56;71.53;99235.55;263485;1104;115183;-70
2021/04/18 05:20:25;;;;;;;63.98;33.80;;;;;;;7.69;72.03;99238.48;262945;1099;115018;-71
2021/04/18 05:25:28;;;;;;;53.95;31.88;;;;;;;7.69;71.79;99235.84;263440;1104;115236;-70
2021/04/18 05:30:30;;;;;;;56.23;31.60;;;;;;;7.71;71.46;99241.94;263401;1098;115462;-70
2021/04/18 05:35:33;;;;;;;63.18;34.88;;;;;;;7.70;71.82;99240.20;263497;1102;114943;-70
2021/04/18 05:40:36;;;;;;;59.63;33.40;;;;;;;7.72;71.50;99241.00;263513;1099;115528;-70
2021/04/18 05:45:40;;;;;;;51.37;30.37;;;;;;;7.69;71.58;99237.64;263538;1104;115638;-72
2021/04/18 05:50:44;;;;;;;49.73;28.60;;;;;;;7.64;70.99;99242.27;263441;1099;115012;-70
2021/04/18 05:55:47;;;;;;;53.88;29.90;;;;;;;7.68;71.52;99238.58;263534;1104;115675;-70
2021/04/18 06:00:50;;;;;;;54.65;30.75;;;;;;;7.64;71.31;99251.08;263511;1099;114860;-66
2021/04/18 06:05:52;;;;;;;49.98;29.73;;;;;;;7.60;71.79;99246.86;263434;1104;115031;-66
2021/04/18 06:10:55;;;;;;;54.38;29.55;;;;;;;7.66;71.89;99251.02;263398;1099;114481;-67
2021/04/18 06:15:58;;;;;;;48.35;28.30;;;;;;;7.79;71.92;99254.81;263451;1100;115286;-66
2021/04/18 06:21:01;;;;;;;50.15;28.18;;;;;;;7.95;72.05;99261.11;263241;1100;115095;-68
2021/04/18 06:26:04;;;;;;;49.78;29.23;;;;;;;8.10;71.32;99254.20;263161;1104;114951;-67
2021/04/18 06:31:06;;;;;;;45.50;28.05;;;;;;;8.16;71.24;99255.70;263109;1100;114671;-68
2021/04/18 06:36:10;;;;;;;49.58;28.90;;;;;;;8.21;70.99;99265.13;263191;1104;114996;-73
2021/04/18 06:41:21;;;;;;;53.93;28.65;;;;;;;8.26;71.33;99267.58;263403;1099;114793;-72
2021/04/18 06:46:24;;;;;;;50.68;28.45;;;;;;;8.29;70.92;99267.44;263138;1104;114703;-67
2021/04/18 06:51:27;;;;;;;47.58;25.95;;;;;;;8.39;71.13;99262.55;263067;1100;114828;-70
2021/04/18 06:56:30;;;;;;;45.93;26.13;;;;;;;8.39;71.10;99270.50;263457;1102;114986;-66
2021/04/18 07:01:35;;;;;;;40.08;23.25;;;;;;;8.40;70.93;99277.55;263356;1104;114734;-67
2021/04/18 07:06:47;;;;;;;39.23;23.15;;;;;;;8.33;71.01;99276.09;263473;1099;115284;-66
2021/04/18 07:11:58;;;;;;;37.65;22.20;;;;;;;8.25;70.83;99279.98;263009;1104;115407;-66
2021/04/18 07:17:11;;;;;;;34.03;20.48;;;;;;;8.19;70.37;99282.07;263383;1104;115240;-69
2021/04/18 07:22:19;;;;;;;33.70;20.23;;;;;;;8.14;70.28;99284.92;262170;1099;115532;-73
2021/04/18 07:27:23;;;;;;;39.88;21.30;;;;;;;8.14;70.80;99289.38;263257;1104;115644;-74
2021/04/18 07:32:29;;;;;;;36.15;21.15;;;;;;;8.20;70.58;99286.44;263046;1100;114833;-71
2021/04/18 07:37:35;;;;;;;40.33;24.18;;;;;;;8.24;70.61;99285.34;263435;1104;114842;-71
2021/04/18 07:42:38;;;;;;;39.95;23.08;;;;;;;8.28;70.82;99285.11;263421;1099;114880;-72
2021/04/18 07:47:44;;;;;;;40.33;22.23;;;;;;;8.33;70.78;99289.36;263425;1104;114699;-67
2021/04/18 07:52:49;;;;;;;38.88;24.23;;;;;;;8.35;70.64;99290.12;262982;1104;114699;-68
2021/04/18 07:57:53;;;;;;;40.90;23.40;;;;;;;8.36;70.47;99290.06;263499;1100;114970;-76
2021/04/18 08:02:56;;;;;;;39.03;23.43;;;;;;;8.46;70.64;99277.25;263456;1101;115244;-81
2021/04/18 08:07:59;;;;;;;45.70;26.30;;;;;;;8.54;70.17;99283.02;263052;1099;114801;-70
2021/04/18 08:13:09;;;;;;;47.80;26.08;;;;;;;8.59;70.45;99280.97;263406;1100;115254;-76
2021/04/18 08:18:14;;;;;;;43.50;26.10;;;;;;;8.67;70.58;99281.47;263436;1099;115089;-76
2021/04/18 08:23:18;;;;;;;44.38;25.40;;;;;;;8.81;70.44;99278.11;263156;1104;115732;-79
2021/04/18 08:28:20;;;;;;;45.13;25.08;;;;;;;8.90;70.09;99275.00;263216;1100;114706;-70
2021/04/18 08:33:39;;;;;;;40.70;23.97;;;;;;;8.96;69.92;99272.00;263402;1104;115033;-76
2021/04/18 08:38:46;;;;;;;42.98;23.53;;;;;;;8.94;69.67;99270.39;263434;1099;117446;-77
2021/04/18 08:44:13;;;;;;;40.75;23.05;;;;;;;8.92;69.61;99265.14;263492;1104;114885;-76
2021/04/18 08:49:37;;;;;;;40.60;23.27;;;;;;;9.04;70.01;99265.47;263636;1099;114831;-74
2021/04/18 08:54:43;;;;;;;41.93;23.83;;;;;;;9.17;69.76;99269.16;263468;1098;114460;-76
2021/04/18 08:59:51;;;;;;;42.38;22.90;;;;;;;9.24;69.46;99263.48;262796;1104;114767;-71
2021/04/18 09:04:57;;;;;;;38.35;22.00;;;;;;;9.24;68.80;99263.48;263417;1099;114625;-70
2021/04/18 09:10:08;;;;;;;40.18;22.68;;;;;;;9.34;69.33;99252.34;263311;1104;115402;-69
2021/04/18 09:15:11;;;;;;;37.38;21.15;;;;;;;9.55;68.90;99256.52;263353;1100;115182;-70
2021/04/18 09:20:18;;;;;;;38.53;21.77;;;;;;;9.64;68.40;99241.86;263134;1104;114712;-76
2021/04/18 09:25:20;;;;;;;33.03;19.25;;;;;;;9.73;68.34;99241.36;262647;1099;115057;-77
2021/04/18 09:30:29;;;;;;;30.38;19.75;;;;;;;9.78;68.79;99236.63;263529;1104;114315;-78
2021/04/18 09:35:32;;;;;;;29.25;17.73;;;;;;;9.92;67.79;99226.11;263363;1099;114654;-77
2021/04/18 09:40:37;;;;;;;25.80;15.43;;;;;;;10.07;67.59;99224.37;263237;1104;114657;-73
2021/04/18 09:45:40;;;;;;;24.10;14.70;;;;;;;10.16;67.11;99223.85;263382;1099;115173;-77
2021/04/18 09:50:43;;;;;;;21.35;13.83;;;;;;;10.24;67.24;99225.20;263445;1102;116495;-76
2021/04/18 09:56:05;;;;;;;26.00;15.85;;;;;;;10.24;66.70;99225.20;262979;1099;114927;-87
2021/04/18 10:01:27;;;;;;;26.70;16.83;;;;;;;10.22;66.39;99227.94;263388;1104;115462;-77
2021/04/18 10:06:46;;;;;;;29.75;17.55;;;;;;;10.21;66.69;99228.89;263028;1099;114964;-75
2021/04/18 10:12:09;;;;;;;29.13;18.08;;;;;;;10.31;66.14;99231.92;263518;1101;115762;-75
2021/04/18 10:17:31;;;;;;;26.50;16.58;;;;;;;10.42;66.49;99232.14;263498;1098;115969;-74
2021/04/18 10:22:34;;;;;;;26.83;16.18;;;;;;;10.65;66.66;99225.48;263500;1104;116220;-74
2021/04/18 10:27:37;;;;;;;23.18;15.68;;;;;;;10.71;66.14;99235.77;263464;1098;114846;-78
2021/04/18 10:32:39;;;;;;;26.60;16.50;;;;;;;10.70;65.99;99228.73;263410;1103;114545;-78
2021/04/18 10:37:44;;;;;;;27.65;17.63;;;;;;;10.62;65.44;99231.83;262889;1099;114689;-91
2021/04/18 10:42:47;;;;;;;28.93;16.50;;;;;;;10.53;64.91;99232.40;262510;1104;114753;-84
2021/04/18 10:47:50;;;;;;;27.10;17.05;;;;;;;10.47;64.79;99226.58;263487;1099;115680;-81
2021/04/18 10:52:53;;;;;;;32.83;18.83;;;;;;;10.39;64.78;99233.20;263424;1104;114877;-80
2021/04/18 10:57:56;;;;;;;36.90;22.07;;;;;;;10.84;68.57;99227.91;263461;1099;114512;-77
2021/04/18 11:02:59;;;;;;;34.53;19.43;;;;;;;11.13;65.33;99226.13;263437;1104;115033;-89
2021/04/18 11:08:02;;;;;;;35.45;21.18;;;;;;;11.05;64.47;99229.27;263464;1099;114877;-87
2021/04/18 11:13:08;;;;;;;39.03;22.38;;;;;;;10.95;64.52;99227.27;263436;1104;114760;-82
2021/04/18 11:18:11;;;;;;;42.65;23.28;;;;;;;10.91;64.91;99225.73;263428;1098;115133;-88
2021/04/18 11:23:14;;;;;;;44.45;24.03;;;;;;;10.90;64.46;99227.52;263427;1104;114964;-86
2021/04/18 11:28:17;;;;;;;44.93;24.03;;;;;;;10.85;63.75;99232.28;263459;1098;115015;-86
2021/04/18 11:33:22;;;;;;;62.68;32.30;;;;;;;11.46;66.89;99233.84;263382;1104;116024;-86
2021/04/18 11:38:25;;;;;;;58.15;28.58;;;;;;;12.14;66.53;99237.58;263107;1098;114756;-89
2021/04/18 11:43:28;;;;;;;42.40;24.43;;;;;;;12.39;64.07;99226.13;263453;1104;114437;-92
2021/04/18 11:48:31;;;;;;;43.38;23.28;;;;;;;12.12;63.59;99221.65;263525;1099;114711;-90
2021/04/18 11:53:36;;;;;;;43.95;23.68;;;;;;;11.86;62.83;99218.03;263443;1104;114738;-92
2021/04/18 11:58:42;;;;;;;36.28;21.45;;;;;;;11.57;62.07;99212.70;262630;1098;114809;-94
2021/04/18 12:03:50;;;;;;;33.55;20.68;;;;;;;11.32;62.67;99220.53;263488;1104;114794;-92
2021/04/18 12:08:53;;;;;;;36.43;21.13;;;;;;;11.13;62.53;99221.65;263466;1098;115230;-84
2021/04/18 12:13:56;;;;;;;39.15;21.98;;;;;;;11.02;62.26;99223.27;263474;1104;115729;-90
2021/04/18 12:19:03;;;;;;;37.23;21.45;;;;;;;10.99;62.96;99212.80;263420;1098;114776;-76
2021/04/18 12:24:07;;;;;;;30.83;20.28;;;;;;;10.96;63.11;99216.50;263376;1104;115304;-74
2021/04/18 12:29:11;;;;;;;32.70;20.57;;;;;;;10.96;62.95;99211.17;263469;1098;115746;-78
2021/04/18 12:34:15;;;;;;;32.40;21.05;;;;;;;10.93;62.49;99211.36;263495;1104;114409;-72
2021/04/18 12:39:18;;;;;;;30.25;19.35;;;;;;;10.94;62.73;99213.09;263445;1099;114699;-71
2021/04/18 12:44:23;;;;;;;33.70;20.60;;;;;;;10.97;63.06;99204.04;263426;1104;114771;-86
2021/04/18 12:49:26;;;;;;;;;;;;;;;11.00;62.73;99204.70;263472;1099;114907;-77
2021/04/18 12:54:29;;;;;;;32.68;20.43;;;;;;;11.01;62.92;99206.44;263495;1103;101598;-77
2021/04/18 12:59:33;;;;;;;30.33;19.95;;;;;;;11.03;62.49;99209.00;263416;1104;114940;-86
2021/04/18 13:04:36;;;;;;;165.80;107.03;;;;;;;11.06;63.22;99204.34;263423;1104;114816;-81
2021/04/18 13:09:39;;;;;;;110.80;72.28;;;;;;;12.59;66.58;99201.63;263431;1104;115367;-74
2021/04/18 13:14:43;;;;;;;33.77;23.27;;;;;;;13.51;63.94;99197.92;259132;1099;115419;-79
2021/04/18 13:19:46;;;;;;;32.78;21.73;;;;;;;13.85;62.76;99211.53;263268;1104;114938;-85
2021/04/18 13:24:49;;;;;;;30.63;20.60;;;;;;;13.43;60.29;99195.80;263458;1099;115033;-86
2021/04/18 13:29:52;;;;;;;29.68;20.03;;;;;;;12.98;60.34;99197.20;263458;1104;115127;-83
2021/04/18 13:34:56;;;;;;;28.93;20.23;;;;;;;12.61;60.15;99196.20;263403;1099;114875;-74
2021/04/18 13:39:59;;;;;;;30.18;19.40;;;;;;;12.36;59.96;99203.16;263491;1104;115009;-75
2021/04/18 13:45:06;;;;;;;28.78;20.43;;;;;;;12.11;60.13;99203.09;263495;1099;115428;-73
2021/04/18 13:50:11;;;;;;;29.00;20.85;;;;;;;11.84;59.97;99201.26;263456;1104;114711;-80
2021/04/18 13:55:14;;;;;;;;;;;;;;;11.68;60.65;99205.83;263471;1100;115384;-80
2021/04/18 14:00:18;;;;;;;31.15;19.80;;;;;;;11.54;60.83;99202.23;263545;1104;101430;-79
2021/04/18 14:05:21;;;;;;;33.03;22.00;;;;;;;11.64;61.24;99209.65;263461;1099;114695;-81
2021/04/18 14:10:25;;;;;;;29.23;19.63;;;;;;;11.59;61.47;99205.47;263458;1104;115013;-82
2021/04/18 14:15:28;;;;;;;27.38;18.98;;;;;;;11.49;60.84;99207.01;263412;1099;114658;-77
2021/04/18 14:20:31;;;;;;;24.40;18.10;;;;;;;11.39;60.74;99203.20;263447;1104;114873;-80
2021/04/18 14:25:35;;;;;;;28.20;18.45;;;;;;;11.29;60.73;99200.26;263432;1099;115337;-93
2021/04/18 14:30:38;;;;;;;27.40;18.98;;;;;;;11.27;60.72;99201.30;263511;1104;115051;-80
2021/04/18 14:35:41;;;;;;;28.28;19.70;;;;;;;11.36;60.78;99206.06;263413;1099;114753;-82
2021/04/18 14:40:44;;;;;;;27.93;19.45;;;;;;;11.33;60.80;99200.92;263440;1104;115482;-78
2021/04/18 14:45:47;;;;;;;148.28;91.00;;;;;;;11.84;63.41;99202.11;263509;1098;115701;-78
2021/04/18 14:50:51;;;;;;;30.48;21.35;;;;;;;12.12;60.95;99200.30;263453;1104;114787;-86
2021/04/18 14:55:54;;;;;;;24.85;17.85;;;;;;;11.97;60.77;99204.84;263502;1099;114858;-78
2021/04/18 15:00:58;;;;;;;26.15;17.10;;;;;;;11.82;59.86;99211.16;263500;1104;114687;-79
2021/04/18 15:06:01;;;;;;;22.73;15.95;;;;;;;11.66;60.27;99207.75;263424;1099;114968;-79
2021/04/18 15:11:04;;;;;;;23.88;17.00;;;;;;;11.52;59.95;99208.63;263468;1104;114875;-73
2021/04/18 15:16:07;;;;;;;22.75;16.65;;;;;;;11.42;60.36;99215.49;263438;1098;115362;-75
2021/04/18 15:21:11;;;;;;;25.18;16.95;;;;;;;11.33;59.91;99216.91;263414;1104;115797;-76
2021/04/18 15:26:14;;;;;;;26.70;16.85;;;;;;;11.26;60.33;99211.10;263423;1099;115461;-72
2021/04/18 15:31:17;;;;;;;24.40;16.25;;;;;;;11.21;60.11;99217.66;261805;1100;114795;-72
2021/04/18 15:36:22;;;;;;;22.70;16.55;;;;;;;11.18;60.22;99208.07;262997;1099;114993;-73
2021/04/18 15:41:25;;;;;;;;;;;;;;;11.15;60.36;99210.92;263438;1104;115222;-70
2021/04/18 15:46:27;;;;;;;22.23;15.15;;;;;;;11.11;60.69;99212.06;263484;1099;101026;-75
2021/04/18 15:51:31;;;;;;;22.18;15.98;;;;;;;11.08;60.30;99198.94;263438;1104;115139;-76
2021/04/18 15:56:35;;;;;;;24.33;16.35;;;;;;;11.05;60.58;99209.77;263300;1099;114883;-78
2021/04/18 16:01:38;;;;;;;23.93;16.48;;;;;;;11.03;60.58;99204.52;262309;1104;114893;-81
2021/04/18 16:06:42;;;;;;;23.02;16.78;;;;;;;11.00;60.65;99204.70;263376;1099;115188;-80
2021/04/18 16:11:44;;;;;;;23.15;17.00;;;;;;;10.98;60.45;99208.44;263484;1104;114545;-80
2021/04/18 16:16:47;;;;;;;30.25;18.45;;;;;;;10.96;60.47;99208.52;263389;1098;115953;-80
2021/04/18 16:21:51;;;;;;;25.13;17.03;;;;;;;10.95;60.78;99208.62;263421;1104;115110;-80
2021/04/18 16:26:54;;;;;;;23.13;16.25;;;;;;;10.92;61.11;99209.66;263453;1099;115362;-82
2021/04/18 16:31:56;;;;;;;24.55;17.45;;;;;;;10.90;60.99;99214.20;263462;1104;115014;-80
2021/04/18 16:37:03;;;;;;;26.85;17.75;;;;;;;10.89;60.90;99212.50;263445;1098;114900;-83
2021/04/18 16:42:06;;;;;;;24.75;17.28;;;;;;;10.89;60.96;99216.02;263420;1104;115101;-79
2021/04/18 16:47:10;;;;;;;23.70;16.95;;;;;;;10.87;60.96;99223.26;263379;1104;114879;-77
2021/04/18 16:52:14;;;;;;;26.53;17.83;;;;;;;10.84;60.80;99227.91;263454;1104;114612;-79
2021/04/18 16:57:17;;;;;;;27.83;18.35;;;;;;;10.80;61.27;99229.02;263407;1099;114737;-77
2021/04/18 17:02:21;;;;;;;24.65;17.43;;;;;;;10.77;61.18;99239.88;263451;1104;114851;-78
2021/04/18 17:07:42;;;;;;;25.55;17.53;;;;;;;10.73;61.53;99236.52;263484;1099;114936;-78
2021/04/18 17:12:45;;;;;;;26.83;18.30;;;;;;;10.73;61.30;99243.64;263250;1104;114962;-80
2021/04/18 17:17:48;;;;;;;29.18;19.95;;;;;;;10.71;61.46;99250.89;263412;1099;115050;-74
2021/04/18 17:22:52;;;;;;;31.73;21.15;;;;;;;10.68;61.27;99256.39;263459;1104;115590;-80
2021/04/18 17:27:55;;;;;;;32.80;20.78;;;;;;;10.65;61.51;99260.08;263428;1099;115242;-82
2021/04/18 17:32:58;;;;;;;29.63;21.10;;;;;;;10.62;61.51;99260.25;263333;1104;114885;-76
2021/04/18 17:38:01;;;;;;;32.28;21.05;;;;;;;10.60;61.93;99263.02;263371;1098;114666;-76
2021/04/18 17:43:05;;;;;;;34.13;21.13;;;;;;;10.58;61.50;99272.88;263459;1104;115262;-81
2021/04/18 17:48:08;;;;;;;33.18;20.90;;;;;;;10.62;61.38;99266.42;263356;1099;115121;-81
2021/04/18 17:53:12;;;;;;;31.35;21.10;;;;;;;10.67;61.49;99265.33;263418;1104;115022;-81
2021/04/18 17:58:15;;;;;;;30.73;21.05;;;;;;;10.69;61.45;99268.73;263408;1098;115785;-78
2021/04/18 18:03:18;;;;;;;32.05;20.30;;;;;;;10.72;61.45;99268.56;263415;1104;115373;-78
2021/04/18 18:08:21;;;;;;;31.95;20.95;;;;;;;10.69;61.47;99266.92;263418;1098;116033;-78
2021/04/18 18:13:24;;;;;;;31.20;19.30;;;;;;;10.65;61.87;99271.58;263453;1104;115838;-81
2021/04/18 18:18:28;;;;;;;26.95;19.65;;;;;;;10.62;61.29;99269.09;263390;1098;115024;-81
2021/04/18 18:23:33;;;;;;;29.25;19.38;;;;;;;10.59;61.88;99273.73;262671;1104;114940;-77
2021/04/18 18:28:36;;;;;;;29.83;19.85;;;;;;;10.53;61.50;99272.31;263449;1097;115169;-84
2021/04/18 18:33:40;;;;;;;38.08;24.40;;;;;;;10.49;61.30;99283.20;263485;1104;114842;-78
2021/04/18 18:38:44;;;;;;;36.35;23.98;;;;;;;10.46;61.70;99278.94;263004;1099;114956;-79
2021/04/18 18:43:47;;;;;;;37.10;24.20;;;;;;;10.44;62.07;99286.14;263542;1104;114624;-79
2021/04/18 18:48:51;;;;;;;41.45;24.78;;;;;;;10.41;61.94;99280.98;263462;1099;115353;-87
2021/04/18 18:53:55;;;;;;;35.93;23.13;;;;;;;10.38;61.97;99275.84;262545;1104;114833;-85
2021/04/18 18:58:58;;;;;;;37.40;23.28;;;;;;;10.39;61.74;99290.84;263451;1098;115262;-83
2021/04/18 19:04:04;;;;;;;35.45;22.80;;;;;;;10.36;61.89;99272.40;263365;1104;115045;-77
2021/04/18 19:09:07;;;;;;;42.15;24.55;;;;;;;10.34;62.00;99271.65;263468;1098;115687;-77
2021/04/18 19:14:10;;;;;;;40.63;24.13;;;;;;;10.32;61.89;99262.88;263490;1104;114968;-76
2021/04/18 19:19:13;;;;;;;39.73;22.45;;;;;;;10.33;61.77;99267.28;263073;1104;115255;-76
2021/04/18 19:24:16;;;;;;;35.00;22.40;;;;;;;10.28;62.04;99275.50;262961;1104;115022;-82
2021/04/18 19:29:19;;;;;;;34.85;21.60;;;;;;;10.23;61.90;99271.38;263509;1099;115042;-82
2021/04/18 19:34:22;;;;;;;31.97;20.90;;;;;;;10.23;61.82;99271.38;263467;1104;115804;-81
2021/04/18 19:39:29;;;;;;;34.65;20.95;;;;;;;10.21;62.36;99273.26;262624;1099;212439;-81
2021/04/18 19:44:32;;;;;;;29.28;19.25;;;;;;;10.19;61.87;99279.53;263505;1104;114860;-81
2021/04/18 19:49:34;;;;;;;26.78;18.80;;;;;;;10.17;62.61;99272.58;263520;1098;114848;-81
2021/04/18 19:54:38;;;;;;;28.50;18.80;;;;;;;10.14;62.23;99270.94;263563;1104;115308;-76
2021/04/18 19:59:44;;;;;;;27.28;18.90;;;;;;;10.09;62.18;99273.02;263508;1099;114975;-76
2021/04/18 20:04:47;;;;;;;29.15;18.43;;;;;;;10.05;62.09;99268.78;263506;1104;114852;-76
2021/04/18 20:09:50;;;;;;;36.08;20.85;;;;;;;10.00;62.37;99264.70;263424;1099;115361;-76
2021/04/18 20:14:53;;;;;;;40.53;23.60;;;;;;;9.94;62.29;99249.93;263487;1104;114626;-82
2021/04/18 20:19:56;;;;;;;41.20;23.45;;;;;;;9.89;62.19;99250.20;263485;1099;114869;-82
2021/04/18 20:24:59;;;;;;;40.53;23.60;;;;;;;9.83;62.32;99244.37;263210;1104;114697;-76
2021/04/18 20:30:05;;;;;;;43.15;24.60;;;;;;;9.78;62.68;99239.28;263490;1099;114649;-76
2021/04/18 20:35:09;;;;;;;42.95;25.28;;;;;;;9.73;62.60;99236.05;263416;1102;115186;-77
2021/04/18 20:40:12;;;;;;;48.68;27.38;;;;;;;9.66;62.48;99234.67;263525;1099;114589;-83
2021/04/18 20:45:15;;;;;;;45.18;27.13;;;;;;;9.59;62.33;99243.92;263279;1104;114680;-76
2021/04/18 20:50:18;;;;;;;47.75;27.75;;;;;;;9.54;62.55;99245.95;263507;1098;115059;-75
2021/04/18 20:55:24;;;;;;;47.43;28.18;;;;;;;9.55;62.65;99245.89;263535;1104;114501;-75
2021/04/18 21:00:30;;;;;;;48.68;28.10;;;;;;;9.58;62.82;99256.35;263450;1098;114688;-74
2021/04/18 21:05:32;;;;;;;45.03;27.13;;;;;;;9.58;62.46;99245.73;263576;1104;114937;-75
2021/04/18 21:10:35;;;;;;;46.88;27.83;;;;;;;9.55;62.62;99245.89;263497;1099;114741;-75
2021/04/18 21:15:38;;;;;;;43.53;25.68;;;;;;;9.48;62.71;99245.36;263514;1104;115430;-75
2021/04/18 21:20:46;;;;;;;45.48;26.75;;;;;;;9.39;62.57;99242.34;263497;1097;114898;-83
2021/04/18 21:25:49;;;;;;;43.58;27.23;;;;;;;9.28;62.82;99247.38;263451;1104;114607;-82
2021/04/18 21:30:52;;;;;;;44.23;26.87;;;;;;;9.15;62.83;99242.71;263498;1098;114809;-82
2021/04/18 21:35:55;;;;;;;47.38;27.43;;;;;;;9.05;63.07;99237.97;263524;1104;114683;-82
2021/04/18 21:40:58;;;;;;;44.78;27.40;;;;;;;8.97;63.29;99239.23;263473;1098;114443;-82
2021/04/18 21:46:01;;;;;;;43.00;25.30;;;;;;;8.89;63.12;99241.41;263518;1104;114863;-81
2021/04/18 21:51:07;;;;;;;47.58;26.38;;;;;;;8.83;63.72;99248.83;263468;1098;114406;-82
2021/04/18 21:56:15;;;;;;;47.25;27.53;;;;;;;8.80;63.58;99241.02;263532;1104;114615;-82
2021/04/18 22:01:18;;;;;;;45.37;25.13;;;;;;;8.82;63.56;99244.47;263509;1099;115064;-75
2021/04/18 22:06:22;;;;;;;45.65;26.20;;;;;;;8.80;63.48;99249.88;263506;1104;114835;-76
2021/04/18 22:11:25;;;;;;;48.28;27.35;;;;;;;8.81;63.99;99246.27;263486;1099;115265;-76
2021/04/18 22:16:29;;;;;;;47.43;27.30;;;;;;;8.82;63.96;99250.63;263483;1104;114708;-76
2021/04/18 22:21:32;;;;;;;41.90;25.88;;;;;;;8.79;63.93;99242.83;263505;1098;115083;-76
2021/04/18 22:26:35;;;;;;;47.45;25.68;;;;;;;8.77;64.11;99244.72;263501;1104;114994;-76
2021/04/18 22:31:39;;;;;;;42.58;25.73;;;;;;;8.73;63.63;99236.06;263428;1098;114919;-76
2021/04/18 22:36:42;;;;;;;43.30;26.15;;;;;;;8.69;63.72;99231.82;263411;1104;114736;-76
2021/04/18 22:41:46;;;;;;;46.03;24.60;;;;;;;8.68;63.99;99237.22;263489;1099;114774;-76
2021/04/18 22:46:50;;;;;;;42.30;25.18;;;;;;;8.66;64.09;99226.70;263539;1104;114781;-76
2021/04/18 22:51:53;;;;;;;43.43;24.50;;;;;;;8.65;63.64;99221.45;263466;1099;115135;-82
2021/04/18 22:56:56;;;;;;;37.53;23.05;;;;;;;8.63;63.92;99224.20;263530;1104;114683;-81
2021/04/18 23:01:59;;;;;;;37.58;22.15;;;;;;;8.62;64.17;99213.65;263526;1099;114563;-82